sensor_id;sensor_type;location;lat;lon;timestamp;P1;durP1;ratioP1;P2;durP2;ratioP2
21032;SDS011;10675;47.976;7.824;2024-02-21T00:00:54;6.10;;;2.63;;
21032;SDS011;10675;47.976;7.824;2024-02-21T00:03:19;4.60;;;2.17;;
21032;SDS011;10675;47.976;7.824;2024-02-21T00:05:45;3.80;;;2.67;;
21032;SDS011;10675;47.976;7.824;2024-02-21T00:08:10;3.97;;;2.53;;
21032;SDS011;10675;47.976;7.824;2024-02-21T00:10:36;6.50;;;2.30;;
21032;SDS011;10675;47.976;7.824;2024-02-21T00:13:01;6.13;;;2.40;;
21032;SDS011;10675;47.976;7.824;2024-02-21T00:15:27;3.87;;;2.00;;
21032;SDS011;10675;47.976;7.824;2024-02-21T00:17:52;7.20;;;3.17;;
21032;SDS011;10675;47.976;7.824;2024-02-21T00:20:18;4.60;;;2.30;;
21032;SDS011;10675;47.976;7.824;2024-02-21T00:22:45;3.57;;;1.97;;
21032;SDS011;10675;47.976;7.824;2024-02-21T00:25:10;3.07;;;2.00;;
21032;SDS011;10675;47.976;7.824;2024-02-21T00:27:36;2.70;;;1.90;;
21032;SDS011;10675;47.976;7.824;2024-02-21T00:30:02;7.33;;;2.50;;
21032;SDS011;10675;47.976;7.824;2024-02-21T00:32:28;4.23;;;2.13;;
21032;SDS011;10675;47.976;7.824;2024-02-21T00:34:53;7.67;;;2.60;;
21032;SDS011;10675;47.976;7.824;2024-02-21T00:37:19;9.90;;;2.60;;
21032;SDS011;10675;47.976;7.824;2024-02-21T00:39:44;5.43;;;2.33;;
21032;SDS011;10675;47.976;7.824;2024-02-21T00:42:10;4.77;;;2.07;;
21032;SDS011;10675;47.976;7.824;2024-02-21T00:44:35;4.20;;;1.90;;
21032;SDS011;10675;47.976;7.824;2024-02-21T00:47:01;4.33;;;2.00;;
21032;SDS011;10675;47.976;7.824;2024-02-21T00:49:26;7.90;;;2.27;;
21032;SDS011;10675;47.976;7.824;2024-02-21T00:51:52;6.87;;;1.70;;
21032;SDS011;10675;47.976;7.824;2024-02-21T00:54:17;2.93;;;2.07;;
21032;SDS011;10675;47.976;7.824;2024-02-21T00:56:43;6.77;;;2.00;;
21032;SDS011;10675;47.976;7.824;2024-02-21T00:59:08;4.47;;;1.97;;
21032;SDS011;10675;47.976;7.824;2024-02-21T01:01:35;3.40;;;1.77;;
21032;SDS011;10675;47.976;7.824;2024-02-21T01:04:01;10.00;;;2.47;;
21032;SDS011;10675;47.976;7.824;2024-02-21T01:06:26;4.93;;;2.00;;
21032;SDS011;10675;47.976;7.824;2024-02-21T01:08:52;6.97;;;1.83;;
21032;SDS011;10675;47.976;7.824;2024-02-21T01:11:17;4.00;;;1.50;;
21032;SDS011;10675;47.976;7.824;2024-02-21T01:13:43;6.40;;;1.63;;
21032;SDS011;10675;47.976;7.824;2024-02-21T01:16:09;4.37;;;1.70;;
21032;SDS011;10675;47.976;7.824;2024-02-21T01:18:36;2.90;;;1.87;;
21032;SDS011;10675;47.976;7.824;2024-02-21T01:21:04;7.30;;;2.00;;
21032;SDS011;10675;47.976;7.824;2024-02-21T01:23:32;5.03;;;1.57;;
21032;SDS011;10675;47.976;7.824;2024-02-21T01:25:58;4.03;;;1.57;;
21032;SDS011;10675;47.976;7.824;2024-02-21T01:28:24;1.80;;;1.40;;
21032;SDS011;10675;47.976;7.824;2024-02-21T01:30:50;3.17;;;1.47;;
21032;SDS011;10675;47.976;7.824;2024-02-21T01:33:15;3.10;;;1.90;;
21032;SDS011;10675;47.976;7.824;2024-02-21T01:35:41;3.60;;;1.93;;
21032;SDS011;10675;47.976;7.824;2024-02-21T01:38:06;2.20;;;1.70;;
21032;SDS011;10675;47.976;7.824;2024-02-21T01:40:32;5.50;;;1.80;;
21032;SDS011;10675;47.976;7.824;2024-02-21T01:42:57;3.70;;;1.60;;
21032;SDS011;10675;47.976;7.824;2024-02-21T01:45:23;3.43;;;2.10;;
21032;SDS011;10675;47.976;7.824;2024-02-21T01:47:48;1.43;;;1.33;;
21032;SDS011;10675;47.976;7.824;2024-02-21T01:50:14;2.40;;;1.60;;
21032;SDS011;10675;47.976;7.824;2024-02-21T01:52:41;4.10;;;1.73;;
21032;SDS011;10675;47.976;7.824;2024-02-21T01:55:09;3.33;;;1.80;;
21032;SDS011;10675;47.976;7.824;2024-02-21T01:57:36;2.83;;;1.37;;
21032;SDS011;10675;47.976;7.824;2024-02-21T02:00:01;3.03;;;1.57;;
21032;SDS011;10675;47.976;7.824;2024-02-21T02:02:28;4.53;;;1.70;;
21032;SDS011;10675;47.976;7.824;2024-02-21T02:04:54;1.97;;;1.50;;
21032;SDS011;10675;47.976;7.824;2024-02-21T02:07:19;3.63;;;1.30;;
21032;SDS011;10675;47.976;7.824;2024-02-21T02:09:45;5.47;;;1.60;;
21032;SDS011;10675;47.976;7.824;2024-02-21T02:12:10;2.67;;;1.30;;
21032;SDS011;10675;47.976;7.824;2024-02-21T02:14:36;3.47;;;1.40;;
21032;SDS011;10675;47.976;7.824;2024-02-21T02:17:01;3.40;;;1.50;;
21032;SDS011;10675;47.976;7.824;2024-02-21T02:19:27;1.37;;;1.27;;
21032;SDS011;10675;47.976;7.824;2024-02-21T02:21:58;3.57;;;1.03;;
21032;SDS011;10675;47.976;7.824;2024-02-21T02:24:29;2.67;;;1.43;;
21032;SDS011;10675;47.976;7.824;2024-02-21T02:26:54;4.67;;;1.30;;
21032;SDS011;10675;47.976;7.824;2024-02-21T02:29:20;3.70;;;1.20;;
21032;SDS011;10675;47.976;7.824;2024-02-21T02:31:45;3.73;;;1.43;;
21032;SDS011;10675;47.976;7.824;2024-02-21T02:34:11;2.83;;;1.53;;
21032;SDS011;10675;47.976;7.824;2024-02-21T02:36:36;2.17;;;1.40;;
21032;SDS011;10675;47.976;7.824;2024-02-21T02:39:02;3.10;;;1.30;;
21032;SDS011;10675;47.976;7.824;2024-02-21T02:41:27;3.20;;;1.50;;
21032;SDS011;10675;47.976;7.824;2024-02-21T02:43:53;2.30;;;1.20;;
21032;SDS011;10675;47.976;7.824;2024-02-21T02:46:18;2.80;;;1.50;;
21032;SDS011;10675;47.976;7.824;2024-02-21T02:48:44;3.00;;;1.30;;
21032;SDS011;10675;47.976;7.824;2024-02-21T02:51:10;3.23;;;1.30;;
21032;SDS011;10675;47.976;7.824;2024-02-21T02:53:35;4.23;;;1.17;;
21032;SDS011;10675;47.976;7.824;2024-02-21T02:56:01;4.40;;;1.33;;
21032;SDS011;10675;47.976;7.824;2024-02-21T02:58:26;2.70;;;1.77;;
21032;SDS011;10675;47.976;7.824;2024-02-21T03:00:52;6.33;;;1.43;;
21032;SDS011;10675;47.976;7.824;2024-02-21T03:03:17;4.07;;;1.27;;
21032;SDS011;10675;47.976;7.824;2024-02-21T03:05:43;3.20;;;1.50;;
21032;SDS011;10675;47.976;7.824;2024-02-21T03:08:09;3.73;;;1.27;;
21032;SDS011;10675;47.976;7.824;2024-02-21T03:10:34;1.73;;;1.47;;
21032;SDS011;10675;47.976;7.824;2024-02-21T03:13:00;2.50;;;1.37;;
21032;SDS011;10675;47.976;7.824;2024-02-21T03:15:26;2.83;;;1.30;;
21032;SDS011;10675;47.976;7.824;2024-02-21T03:17:51;3.20;;;1.30;;
21032;SDS011;10675;47.976;7.824;2024-02-21T03:20:17;1.40;;;1.30;;
21032;SDS011;10675;47.976;7.824;2024-02-21T03:22:44;6.27;;;1.37;;
21032;SDS011;10675;47.976;7.824;2024-02-21T03:25:10;3.30;;;1.37;;
21032;SDS011;10675;47.976;7.824;2024-02-21T03:27:36;1.77;;;1.37;;
21032;SDS011;10675;47.976;7.824;2024-02-21T03:30:01;2.50;;;1.10;;
21032;SDS011;10675;47.976;7.824;2024-02-21T03:32:27;2.20;;;1.60;;
21032;SDS011;10675;47.976;7.824;2024-02-21T03:34:53;2.70;;;1.10;;
21032;SDS011;10675;47.976;7.824;2024-02-21T03:37:19;1.83;;;1.00;;
21032;SDS011;10675;47.976;7.824;2024-02-21T03:39:45;4.30;;;1.17;;
21032;SDS011;10675;47.976;7.824;2024-02-21T03:42:11;3.93;;;1.20;;
21032;SDS011;10675;47.976;7.824;2024-02-21T03:44:36;2.60;;;1.40;;
21032;SDS011;10675;47.976;7.824;2024-02-21T03:47:02;2.27;;;1.10;;
21032;SDS011;10675;47.976;7.824;2024-02-21T03:49:28;1.47;;;1.37;;
21032;SDS011;10675;47.976;7.824;2024-02-21T03:51:53;1.77;;;1.23;;
21032;SDS011;10675;47.976;7.824;2024-02-21T03:54:19;0.87;;;0.87;;
21032;SDS011;10675;47.976;7.824;2024-02-21T03:56:45;1.10;;;1.00;;
21032;SDS011;10675;47.976;7.824;2024-02-21T03:59:12;2.67;;;1.10;;
21032;SDS011;10675;47.976;7.824;2024-02-21T04:01:38;1.97;;;1.07;;
21032;SDS011;10675;47.976;7.824;2024-02-21T04:04:03;2.70;;;1.23;;
21032;SDS011;10675;47.976;7.824;2024-02-21T04:06:29;3.50;;;1.23;;
21032;SDS011;10675;47.976;7.824;2024-02-21T04:08:54;1.73;;;1.10;;
21032;SDS011;10675;47.976;7.824;2024-02-21T04:11:20;2.80;;;1.10;;
21032;SDS011;10675;47.976;7.824;2024-02-21T04:13:46;2.53;;;1.10;;
21032;SDS011;10675;47.976;7.824;2024-02-21T04:16:13;4.73;;;1.57;;
21032;SDS011;10675;47.976;7.824;2024-02-21T04:18:40;2.10;;;1.43;;
21032;SDS011;10675;47.976;7.824;2024-02-21T04:21:05;2.27;;;1.20;;
21032;SDS011;10675;47.976;7.824;2024-02-21T04:23:31;5.40;;;1.10;;
21032;SDS011;10675;47.976;7.824;2024-02-21T04:25:56;4.10;;;1.40;;
21032;SDS011;10675;47.976;7.824;2024-02-21T04:28:22;2.00;;;1.07;;
21032;SDS011;10675;47.976;7.824;2024-02-21T04:30:47;3.07;;;1.07;;
21032;SDS011;10675;47.976;7.824;2024-02-21T04:33:13;3.13;;;1.17;;
21032;SDS011;10675;47.976;7.824;2024-02-21T04:35:38;1.17;;;1.10;;
21032;SDS011;10675;47.976;7.824;2024-02-21T04:38:04;1.93;;;1.30;;
21032;SDS011;10675;47.976;7.824;2024-02-21T04:40:30;1.20;;;0.93;;
21032;SDS011;10675;47.976;7.824;2024-02-21T04:42:55;2.67;;;0.80;;
21032;SDS011;10675;47.976;7.824;2024-02-21T04:45:22;3.10;;;0.97;;
21032;SDS011;10675;47.976;7.824;2024-02-21T04:47:47;1.20;;;1.10;;
21032;SDS011;10675;47.976;7.824;2024-02-21T04:50:13;5.67;;;1.87;;
21032;SDS011;10675;47.976;7.824;2024-02-21T04:52:39;3.30;;;1.20;;
21032;SDS011;10675;47.976;7.824;2024-02-21T04:55:04;1.80;;;1.40;;
21032;SDS011;10675;47.976;7.824;2024-02-21T04:57:30;0.83;;;0.83;;
21032;SDS011;10675;47.976;7.824;2024-02-21T04:59:56;1.60;;;0.90;;
21032;SDS011;10675;47.976;7.824;2024-02-21T05:02:22;1.67;;;1.13;;
21032;SDS011;10675;47.976;7.824;2024-02-21T05:04:49;0.97;;;0.97;;
21032;SDS011;10675;47.976;7.824;2024-02-21T05:07:15;1.97;;;1.13;;
21032;SDS011;10675;47.976;7.824;2024-02-21T05:09:41;1.43;;;0.83;;
21032;SDS011;10675;47.976;7.824;2024-02-21T05:12:07;3.03;;;1.40;;
21032;SDS011;10675;47.976;7.824;2024-02-21T05:14:33;1.23;;;1.03;;
21032;SDS011;10675;47.976;7.824;2024-02-21T05:16:59;2.50;;;1.00;;
21032;SDS011;10675;47.976;7.824;2024-02-21T05:19:24;1.27;;;1.10;;
21032;SDS011;10675;47.976;7.824;2024-02-21T05:21:50;2.57;;;1.47;;
21032;SDS011;10675;47.976;7.824;2024-02-21T05:24:16;3.10;;;1.20;;
21032;SDS011;10675;47.976;7.824;2024-02-21T05:26:41;3.17;;;1.00;;
21032;SDS011;10675;47.976;7.824;2024-02-21T05:29:07;3.60;;;1.60;;
21032;SDS011;10675;47.976;7.824;2024-02-21T05:34:17;1.20;;;1.00;;
21032;SDS011;10675;47.976;7.824;2024-02-21T05:36:42;2.67;;;1.10;;
21032;SDS011;10675;47.976;7.824;2024-02-21T05:39:08;2.20;;;1.20;;
21032;SDS011;10675;47.976;7.824;2024-02-21T05:41:34;1.40;;;1.00;;
21032;SDS011;10675;47.976;7.824;2024-02-21T05:43:59;2.67;;;1.17;;
21032;SDS011;10675;47.976;7.824;2024-02-21T05:46:25;2.30;;;0.90;;
21032;SDS011;10675;47.976;7.824;2024-02-21T05:48:50;1.07;;;0.97;;
21032;SDS011;10675;47.976;7.824;2024-02-21T05:51:16;4.50;;;1.20;;
21032;SDS011;10675;47.976;7.824;2024-02-21T05:53:41;1.23;;;1.00;;
21032;SDS011;10675;47.976;7.824;2024-02-21T05:56:10;4.47;;;1.00;;
21032;SDS011;10675;47.976;7.824;2024-02-21T05:58:37;4.00;;;1.33;;
21032;SDS011;10675;47.976;7.824;2024-02-21T06:01:02;2.03;;;1.10;;
21032;SDS011;10675;47.976;7.824;2024-02-21T06:03:28;5.17;;;1.20;;
21032;SDS011;10675;47.976;7.824;2024-02-21T06:05:54;1.10;;;1.00;;
21032;SDS011;10675;47.976;7.824;2024-02-21T06:08:20;1.10;;;1.00;;
21032;SDS011;10675;47.976;7.824;2024-02-21T06:10:46;3.23;;;1.03;;
21032;SDS011;10675;47.976;7.824;2024-02-21T06:13:12;1.97;;;1.10;;
21032;SDS011;10675;47.976;7.824;2024-02-21T06:15:37;2.33;;;0.87;;
21032;SDS011;10675;47.976;7.824;2024-02-21T06:18:03;2.90;;;1.20;;
21032;SDS011;10675;47.976;7.824;2024-02-21T06:20:29;1.47;;;1.37;;
21032;SDS011;10675;47.976;7.824;2024-02-21T06:22:54;1.17;;;1.07;;
21032;SDS011;10675;47.976;7.824;2024-02-21T06:25:20;4.23;;;1.50;;
21032;SDS011;10675;47.976;7.824;2024-02-21T06:27:45;3.40;;;1.63;;
21032;SDS011;10675;47.976;7.824;2024-02-21T06:30:11;2.80;;;1.50;;
21032;SDS011;10675;47.976;7.824;2024-02-21T06:32:37;2.67;;;1.77;;
21032;SDS011;10675;47.976;7.824;2024-02-21T06:35:03;3.43;;;1.93;;
21032;SDS011;10675;47.976;7.824;2024-02-21T06:37:29;2.23;;;1.77;;
21032;SDS011;10675;47.976;7.824;2024-02-21T06:39:55;2.63;;;1.73;;
21032;SDS011;10675;47.976;7.824;2024-02-21T06:42:20;4.17;;;2.00;;
21032;SDS011;10675;47.976;7.824;2024-02-21T06:44:46;6.60;;;2.80;;
21032;SDS011;10675;47.976;7.824;2024-02-21T06:47:12;3.43;;;2.60;;
21032;SDS011;10675;47.976;7.824;2024-02-21T06:49:37;4.73;;;3.10;;
21032;SDS011;10675;47.976;7.824;2024-02-21T06:52:04;4.17;;;2.67;;
21032;SDS011;10675;47.976;7.824;2024-02-21T06:54:30;2.83;;;2.20;;
21032;SDS011;10675;47.976;7.824;2024-02-21T06:56:56;4.80;;;2.70;;
21032;SDS011;10675;47.976;7.824;2024-02-21T06:59:21;3.73;;;2.70;;
21032;SDS011;10675;47.976;7.824;2024-02-21T07:01:48;2.53;;;2.30;;
21032;SDS011;10675;47.976;7.824;2024-02-21T07:04:14;8.40;;;2.67;;
21032;SDS011;10675;47.976;7.824;2024-02-21T07:06:40;5.27;;;2.37;;
21032;SDS011;10675;47.976;7.824;2024-02-21T07:09:06;3.73;;;2.10;;
21032;SDS011;10675;47.976;7.824;2024-02-21T07:11:31;3.63;;;2.40;;
21032;SDS011;10675;47.976;7.824;2024-02-21T07:13:57;6.80;;;2.93;;
21032;SDS011;10675;47.976;7.824;2024-02-21T07:16:22;4.93;;;3.07;;
21032;SDS011;10675;47.976;7.824;2024-02-21T07:18:48;7.73;;;3.30;;
21032;SDS011;10675;47.976;7.824;2024-02-21T07:21:13;6.83;;;3.43;;
21032;SDS011;10675;47.976;7.824;2024-02-21T07:23:40;9.60;;;2.43;;
21032;SDS011;10675;47.976;7.824;2024-02-21T07:26:07;4.43;;;2.60;;
21032;SDS011;10675;47.976;7.824;2024-02-21T07:28:32;2.80;;;2.23;;
21032;SDS011;10675;47.976;7.824;2024-02-21T07:30:59;4.63;;;2.40;;
21032;SDS011;10675;47.976;7.824;2024-02-21T07:33:24;4.67;;;2.00;;
21032;SDS011;10675;47.976;7.824;2024-02-21T07:35:50;3.20;;;2.10;;
21032;SDS011;10675;47.976;7.824;2024-02-21T07:38:16;3.20;;;1.50;;
21032;SDS011;10675;47.976;7.824;2024-02-21T07:40:44;2.77;;;1.77;;
21032;SDS011;10675;47.976;7.824;2024-02-21T07:43:10;6.23;;;2.63;;
21032;SDS011;10675;47.976;7.824;2024-02-21T07:45:35;6.37;;;2.70;;
21032;SDS011;10675;47.976;7.824;2024-02-21T07:48:01;5.70;;;2.80;;
21032;SDS011;10675;47.976;7.824;2024-02-21T07:50:27;9.87;;;2.40;;
21032;SDS011;10675;47.976;7.824;2024-02-21T07:52:52;9.07;;;2.63;;
21032;SDS011;10675;47.976;7.824;2024-02-21T07:55:18;4.00;;;2.13;;
21032;SDS011;10675;47.976;7.824;2024-02-21T07:57:43;7.43;;;2.47;;
21032;SDS011;10675;47.976;7.824;2024-02-21T08:00:09;10.73;;;2.23;;
21032;SDS011;10675;47.976;7.824;2024-02-21T08:02:40;7.10;;;2.20;;
21032;SDS011;10675;47.976;7.824;2024-02-21T08:05:07;4.10;;;2.20;;
21032;SDS011;10675;47.976;7.824;2024-02-21T08:07:33;1.60;;;1.50;;
21032;SDS011;10675;47.976;7.824;2024-02-21T08:09:59;6.50;;;2.77;;
21032;SDS011;10675;47.976;7.824;2024-02-21T08:12:24;3.23;;;2.13;;
21032;SDS011;10675;47.976;7.824;2024-02-21T08:14:50;5.70;;;2.03;;
21032;SDS011;10675;47.976;7.824;2024-02-21T08:17:15;6.10;;;2.70;;
21032;SDS011;10675;47.976;7.824;2024-02-21T08:19:41;10.23;;;3.03;;
21032;SDS011;10675;47.976;7.824;2024-02-21T08:22:06;6.80;;;2.40;;
21032;SDS011;10675;47.976;7.824;2024-02-21T08:24:32;5.10;;;2.30;;
21032;SDS011;10675;47.976;7.824;2024-02-21T08:26:57;3.07;;;1.97;;
21032;SDS011;10675;47.976;7.824;2024-02-21T08:29:23;4.33;;;2.30;;
21032;SDS011;10675;47.976;7.824;2024-02-21T08:31:48;2.23;;;1.73;;
21032;SDS011;10675;47.976;7.824;2024-02-21T08:34:14;2.13;;;1.67;;
21032;SDS011;10675;47.976;7.824;2024-02-21T08:36:39;4.47;;;1.83;;
21032;SDS011;10675;47.976;7.824;2024-02-21T08:39:05;3.93;;;2.10;;
21032;SDS011;10675;47.976;7.824;2024-02-21T08:41:31;4.17;;;2.00;;
21032;SDS011;10675;47.976;7.824;2024-02-21T08:43:57;6.43;;;2.17;;
21032;SDS011;10675;47.976;7.824;2024-02-21T08:46:23;3.27;;;2.13;;
21032;SDS011;10675;47.976;7.824;2024-02-21T08:48:52;3.60;;;1.83;;
21032;SDS011;10675;47.976;7.824;2024-02-21T08:51:18;3.77;;;2.27;;
21032;SDS011;10675;47.976;7.824;2024-02-21T08:53:44;3.63;;;2.30;;
21032;SDS011;10675;47.976;7.824;2024-02-21T08:56:10;7.87;;;2.23;;
21032;SDS011;10675;47.976;7.824;2024-02-21T08:58:36;4.50;;;2.37;;
21032;SDS011;10675;47.976;7.824;2024-02-21T09:01:05;4.10;;;2.10;;
21032;SDS011;10675;47.976;7.824;2024-02-21T09:03:35;3.57;;;2.13;;
21032;SDS011;10675;47.976;7.824;2024-02-21T09:06:07;4.70;;;2.00;;
21032;SDS011;10675;47.976;7.824;2024-02-21T09:08:34;3.87;;;2.10;;
21032;SDS011;10675;47.976;7.824;2024-02-21T09:11:00;9.03;;;2.67;;
21032;SDS011;10675;47.976;7.824;2024-02-21T09:13:26;6.27;;;1.87;;
21032;SDS011;10675;47.976;7.824;2024-02-21T09:15:52;2.47;;;1.57;;
21032;SDS011;10675;47.976;7.824;2024-02-21T09:18:18;2.83;;;1.63;;
21032;SDS011;10675;47.976;7.824;2024-02-21T09:20:43;2.87;;;1.50;;
21032;SDS011;10675;47.976;7.824;2024-02-21T09:23:09;2.37;;;1.30;;
21032;SDS011;10675;47.976;7.824;2024-02-21T09:25:35;2.57;;;1.60;;
21032;SDS011;10675;47.976;7.824;2024-02-21T09:28:01;1.83;;;1.67;;
21032;SDS011;10675;47.976;7.824;2024-02-21T09:30:27;2.13;;;1.50;;
21032;SDS011;10675;47.976;7.824;2024-02-21T09:32:52;2.43;;;1.40;;
21032;SDS011;10675;47.976;7.824;2024-02-21T09:35:18;3.50;;;1.53;;
21032;SDS011;10675;47.976;7.824;2024-02-21T09:37:44;1.60;;;1.50;;
21032;SDS011;10675;47.976;7.824;2024-02-21T09:40:10;4.10;;;1.40;;
21032;SDS011;10675;47.976;7.824;2024-02-21T09:42:39;3.80;;;2.00;;
21032;SDS011;10675;47.976;7.824;2024-02-21T09:45:21;4.53;;;1.53;;
21032;SDS011;10675;47.976;7.824;2024-02-21T09:50:46;3.33;;;1.63;;
21032;SDS011;10675;47.976;7.824;2024-02-21T09:53:14;2.93;;;1.40;;
21032;SDS011;10675;47.976;7.824;2024-02-21T09:55:40;3.23;;;1.50;;
21032;SDS011;10675;47.976;7.824;2024-02-21T09:58:07;2.83;;;1.53;;
21032;SDS011;10675;47.976;7.824;2024-02-21T10:00:35;2.43;;;1.23;;
21032;SDS011;10675;47.976;7.824;2024-02-21T10:03:01;2.87;;;1.50;;
21032;SDS011;10675;47.976;7.824;2024-02-21T10:05:34;3.27;;;1.30;;
21032;SDS011;10675;47.976;7.824;2024-02-21T10:08:00;2.27;;;1.30;;
21032;SDS011;10675;47.976;7.824;2024-02-21T10:10:26;3.30;;;1.67;;
21032;SDS011;10675;47.976;7.824;2024-02-21T10:12:52;4.73;;;1.70;;
21032;SDS011;10675;47.976;7.824;2024-02-21T10:15:23;5.53;;;1.80;;
21032;SDS011;10675;47.976;7.824;2024-02-21T10:17:50;5.07;;;1.97;;
21032;SDS011;10675;47.976;7.824;2024-02-21T10:20:23;6.77;;;1.70;;
21032;SDS011;10675;47.976;7.824;2024-02-21T10:22:48;2.20;;;1.50;;
21032;SDS011;10675;47.976;7.824;2024-02-21T10:25:14;4.50;;;1.53;;
21032;SDS011;10675;47.976;7.824;2024-02-21T10:27:40;5.03;;;1.50;;
21032;SDS011;10675;47.976;7.824;2024-02-21T10:30:06;2.50;;;1.13;;
21032;SDS011;10675;47.976;7.824;2024-02-21T10:32:33;2.83;;;1.70;;
21032;SDS011;10675;47.976;7.824;2024-02-21T10:35:02;1.93;;;1.30;;
21032;SDS011;10675;47.976;7.824;2024-02-21T10:37:31;1.93;;;1.10;;
21032;SDS011;10675;47.976;7.824;2024-02-21T10:39:57;3.27;;;1.20;;
21032;SDS011;10675;47.976;7.824;2024-02-21T10:42:23;1.30;;;1.20;;
21032;SDS011;10675;47.976;7.824;2024-02-21T10:44:53;3.90;;;1.67;;
21032;SDS011;10675;47.976;7.824;2024-02-21T10:47:25;4.33;;;1.77;;
21032;SDS011;10675;47.976;7.824;2024-02-21T10:49:56;2.43;;;1.70;;
21032;SDS011;10675;47.976;7.824;2024-02-21T10:52:32;3.97;;;1.87;;
21032;SDS011;10675;47.976;7.824;2024-02-21T10:55:21;3.37;;;1.80;;
21032;SDS011;10675;47.976;7.824;2024-02-21T10:57:55;4.80;;;1.70;;
21032;SDS011;10675;47.976;7.824;2024-02-21T11:00:22;3.17;;;1.60;;
21032;SDS011;10675;47.976;7.824;2024-02-21T11:02:55;3.17;;;1.73;;
21032;SDS011;10675;47.976;7.824;2024-02-21T11:05:24;5.50;;;1.80;;
21032;SDS011;10675;47.976;7.824;2024-02-21T11:07:50;3.00;;;1.60;;
21032;SDS011;10675;47.976;7.824;2024-02-21T11:10:20;2.90;;;1.50;;
21032;SDS011;10675;47.976;7.824;2024-02-21T11:12:52;3.67;;;1.57;;
21032;SDS011;10675;47.976;7.824;2024-02-21T11:15:33;2.60;;;1.50;;
21032;SDS011;10675;47.976;7.824;2024-02-21T11:17:59;5.47;;;1.87;;
21032;SDS011;10675;47.976;7.824;2024-02-21T11:23:02;3.97;;;1.90;;
21032;SDS011;10675;47.976;7.824;2024-02-21T11:25:28;3.67;;;1.80;;
21032;SDS011;10675;47.976;7.824;2024-02-21T11:28:04;4.30;;;1.90;;
21032;SDS011;10675;47.976;7.824;2024-02-21T11:30:32;7.17;;;2.30;;
21032;SDS011;10675;47.976;7.824;2024-02-21T11:33:02;5.20;;;2.07;;
21032;SDS011;10675;47.976;7.824;2024-02-21T11:35:30;3.20;;;1.80;;
21032;SDS011;10675;47.976;7.824;2024-02-21T11:38:09;3.37;;;1.87;;
21032;SDS011;10675;47.976;7.824;2024-02-21T11:40:38;2.50;;;1.70;;
21032;SDS011;10675;47.976;7.824;2024-02-21T11:43:05;3.63;;;2.03;;
21032;SDS011;10675;47.976;7.824;2024-02-21T11:45:31;5.00;;;1.80;;
21032;SDS011;10675;47.976;7.824;2024-02-21T11:47:57;1.97;;;1.20;;
21032;SDS011;10675;47.976;7.824;2024-02-21T11:50:25;5.83;;;1.67;;
21032;SDS011;10675;47.976;7.824;2024-02-21T11:52:53;1.37;;;1.20;;
21032;SDS011;10675;47.976;7.824;2024-02-21T11:55:20;1.17;;;1.07;;
21032;SDS011;10675;47.976;7.824;2024-02-21T11:57:47;2.90;;;1.40;;
21032;SDS011;10675;47.976;7.824;2024-02-21T12:00:16;1.17;;;0.80;;
21032;SDS011;10675;47.976;7.824;2024-02-21T12:02:45;0.60;;;0.60;;
21032;SDS011;10675;47.976;7.824;2024-02-21T12:05:11;1.63;;;0.63;;
21032;SDS011;10675;47.976;7.824;2024-02-21T12:07:37;1.80;;;0.90;;
21032;SDS011;10675;47.976;7.824;2024-02-21T12:10:14;1.37;;;0.80;;
21032;SDS011;10675;47.976;7.824;2024-02-21T12:12:40;2.63;;;1.00;;
21032;SDS011;10675;47.976;7.824;2024-02-21T12:15:06;1.37;;;1.13;;
21032;SDS011;10675;47.976;7.824;2024-02-21T12:17:33;1.27;;;0.80;;
21032;SDS011;10675;47.976;7.824;2024-02-21T12:19:59;0.63;;;0.60;;
21032;SDS011;10675;47.976;7.824;2024-02-21T12:22:25;1.47;;;0.50;;
21032;SDS011;10675;47.976;7.824;2024-02-21T12:24:52;0.50;;;0.50;;
21032;SDS011;10675;47.976;7.824;2024-02-21T12:27:17;1.63;;;0.83;;
21032;SDS011;10675;47.976;7.824;2024-02-21T12:29:43;0.70;;;0.70;;
21032;SDS011;10675;47.976;7.824;2024-02-21T12:32:08;0.97;;;0.77;;
21032;SDS011;10675;47.976;7.824;2024-02-21T12:34:34;1.97;;;0.70;;
21032;SDS011;10675;47.976;7.824;2024-02-21T12:37:01;1.10;;;0.80;;
21032;SDS011;10675;47.976;7.824;2024-02-21T12:39:28;1.50;;;0.77;;
21032;SDS011;10675;47.976;7.824;2024-02-21T12:41:53;0.50;;;0.50;;
21032;SDS011;10675;47.976;7.824;2024-02-21T12:44:21;1.20;;;0.60;;
21032;SDS011;10675;47.976;7.824;2024-02-21T12:46:46;0.43;;;0.43;;
21032;SDS011;10675;47.976;7.824;2024-02-21T12:49:16;0.47;;;0.47;;
21032;SDS011;10675;47.976;7.824;2024-02-21T12:51:43;1.60;;;0.67;;
21032;SDS011;10675;47.976;7.824;2024-02-21T12:54:11;1.17;;;0.70;;
21032;SDS011;10675;47.976;7.824;2024-02-21T12:56:37;0.60;;;0.50;;
21032;SDS011;10675;47.976;7.824;2024-02-21T12:59:03;0.60;;;0.53;;
21032;SDS011;10675;47.976;7.824;2024-02-21T13:01:28;0.63;;;0.60;;
21032;SDS011;10675;47.976;7.824;2024-02-21T13:03:54;0.50;;;0.50;;
21032;SDS011;10675;47.976;7.824;2024-02-21T13:06:20;0.77;;;0.70;;
21032;SDS011;10675;47.976;7.824;2024-02-21T13:08:46;1.10;;;0.60;;
21032;SDS011;10675;47.976;7.824;2024-02-21T13:11:12;0.73;;;0.70;;
21032;SDS011;10675;47.976;7.824;2024-02-21T13:13:37;0.60;;;0.60;;
21032;SDS011;10675;47.976;7.824;2024-02-21T13:16:03;1.73;;;0.60;;
21032;SDS011;10675;47.976;7.824;2024-02-21T13:18:29;0.60;;;0.60;;
21032;SDS011;10675;47.976;7.824;2024-02-21T13:20:55;1.03;;;0.93;;
21032;SDS011;10675;47.976;7.824;2024-02-21T13:23:21;0.60;;;0.60;;
21032;SDS011;10675;47.976;7.824;2024-02-21T13:25:46;1.17;;;0.83;;
21032;SDS011;10675;47.976;7.824;2024-02-21T13:28:12;3.23;;;1.70;;
21032;SDS011;10675;47.976;7.824;2024-02-21T13:30:39;2.87;;;1.00;;
21032;SDS011;10675;47.976;7.824;2024-02-21T13:33:07;1.23;;;1.13;;
21032;SDS011;10675;47.976;7.824;2024-02-21T13:35:32;1.93;;;0.97;;
21032;SDS011;10675;47.976;7.824;2024-02-21T13:38:00;0.80;;;0.80;;
21032;SDS011;10675;47.976;7.824;2024-02-21T13:40:25;4.07;;;0.80;;
21032;SDS011;10675;47.976;7.824;2024-02-21T13:42:51;1.00;;;0.90;;
21032;SDS011;10675;47.976;7.824;2024-02-21T13:45:16;1.00;;;0.90;;
21032;SDS011;10675;47.976;7.824;2024-02-21T13:47:42;0.90;;;0.90;;
21032;SDS011;10675;47.976;7.824;2024-02-21T13:50:07;0.70;;;0.70;;
21032;SDS011;10675;47.976;7.824;2024-02-21T13:52:42;1.13;;;1.00;;
21032;SDS011;10675;47.976;7.824;2024-02-21T13:55:08;0.67;;;0.63;;
21032;SDS011;10675;47.976;7.824;2024-02-21T13:57:37;0.80;;;0.80;;
21032;SDS011;10675;47.976;7.824;2024-02-21T14:00:05;2.63;;;1.00;;
21032;SDS011;10675;47.976;7.824;2024-02-21T14:02:35;1.73;;;1.00;;
21032;SDS011;10675;47.976;7.824;2024-02-21T14:05:01;0.80;;;0.80;;
21032;SDS011;10675;47.976;7.824;2024-02-21T14:07:29;1.77;;;1.03;;
21032;SDS011;10675;47.976;7.824;2024-02-21T14:09:55;1.63;;;1.10;;
21032;SDS011;10675;47.976;7.824;2024-02-21T14:12:21;1.77;;;0.93;;
21032;SDS011;10675;47.976;7.824;2024-02-21T14:14:46;0.80;;;0.77;;
21032;SDS011;10675;47.976;7.824;2024-02-21T14:17:12;2.57;;;1.17;;
21032;SDS011;10675;47.976;7.824;2024-02-21T14:19:38;2.73;;;1.40;;
21032;SDS011;10675;47.976;7.824;2024-02-21T14:22:03;2.07;;;1.30;;
21032;SDS011;10675;47.976;7.824;2024-02-21T14:24:29;1.33;;;1.20;;
21032;SDS011;10675;47.976;7.824;2024-02-21T14:26:55;1.13;;;1.00;;
21032;SDS011;10675;47.976;7.824;2024-02-21T14:29:20;1.73;;;0.93;;
21032;SDS011;10675;47.976;7.824;2024-02-21T14:31:46;2.40;;;1.23;;
21032;SDS011;10675;47.976;7.824;2024-02-21T14:34:12;1.77;;;1.10;;
21032;SDS011;10675;47.976;7.824;2024-02-21T14:36:38;1.53;;;1.07;;
21032;SDS011;10675;47.976;7.824;2024-02-21T14:39:03;2.10;;;1.67;;
21032;SDS011;10675;47.976;7.824;2024-02-21T14:41:29;4.27;;;1.40;;
21032;SDS011;10675;47.976;7.824;2024-02-21T14:43:55;1.27;;;1.07;;
21032;SDS011;10675;47.976;7.824;2024-02-21T14:46:24;2.63;;;0.90;;
21032;SDS011;10675;47.976;7.824;2024-02-21T14:48:53;4.87;;;1.40;;
21032;SDS011;10675;47.976;7.824;2024-02-21T14:51:19;1.00;;;0.97;;